Time;durP1;ratioP1;P1;durP2;ratioP2;P2;SDS_P1;SDS_P2;PMS_P1;PMS_P2;Temp;Humidity;BMP_temperature;BMP_pressure;BME280_temperature;BME280_humidity;BME280_pressure;Samples;Min_cycle;Max_cycle;Signal;HPM_P1;HPM_P2
2021/03/01 00:00:38;;;;;;;;;;;6.60;54.80;;;;;;5013001;28;19921;-78
2021/03/01 00:03:05;;;;;;;;;;;6.60;54.90;;;;;;4997857;28;19921;-77
2021/03/01 00:05:31;;;;;;;;;;;6.60;54.90;;;;;;5009388;28;19925;-78
2021/03/01 00:07:58;;;;;;;;;;;6.60;54.90;;;;;;5020393;28;19925;-78
2021/03/01 00:10:25;;;;;;;;;;;6.60;54.90;;;;;;5008854;28;19925;-77
2021/03/01 00:12:51;;;;;;;;;;;6.50;54.90;;;;;;4997515;28;19922;-78
2021/03/01 00:15:20;;;;;;;;;;;6.50;54.90;;;;;;4998903;28;19945;-77
2021/03/01 00:17:46;;;;;;;;;;;6.50;55.00;;;;;;4998262;28;19922;-77
2021/03/01 00:20:14;;;;;;;;;;;6.50;55.00;;;;;;4996795;28;19922;-77
2021/03/01 00:22:40;;;;;;;;;;;6.50;55.10;;;;;;4999847;28;19921;-78
2021/03/01 00:25:08;;;;;;;;;;;6.40;55.10;;;;;;4997567;28;19921;-77
2021/03/01 00:27:34;;;;;;;;;;;6.40;55.10;;;;;;4997418;28;19925;-77
2021/03/01 00:30:01;;;;;;;;;;;6.40;55.20;;;;;;4996397;28;19934;-77
2021/03/01 00:32:27;;;;;;;;;;;6.40;55.20;;;;;;5015258;28;19921;-78
2021/03/01 00:34:53;;;;;;;;;;;6.40;55.20;;;;;;5013903;28;19922;-77
2021/03/01 00:37:20;;;;;;;;;;;6.30;55.10;;;;;;5014023;28;19922;-77
2021/03/01 00:39:46;;;;;;;;;;;6.30;55.30;;;;;;5001867;28;19922;-77
2021/03/01 00:42:13;;;;;;;;;;;6.30;55.30;;;;;;5013270;28;19929;-77
2021/03/01 00:44:40;;;;;;;;;;;6.20;55.30;;;;;;5015536;28;19925;-77
2021/03/01 00:47:06;;;;;;;;;;;6.20;55.40;;;;;;5015581;28;19921;-78
2021/03/01 00:49:33;;;;;;;;;;;6.20;55.60;;;;;;5013316;28;19922;-78
2021/03/01 00:51:59;;;;;;;;;;;6.20;55.50;;;;;;5003126;28;19928;-77
2021/03/01 00:54:25;;;;;;;;;;;6.10;55.50;;;;;;4997768;28;19921;-77
2021/03/01 00:56:51;;;;;;;;;;;6.10;55.60;;;;;;5013504;28;19983;-78
2021/03/01 00:59:19;;;;;;;;;;;6.10;55.60;;;;;;5013872;28;19925;-78
2021/03/01 01:01:45;;;;;;;;;;;6.20;55.70;;;;;;5002973;28;20405;-78
2021/03/01 01:04:11;;;;;;;;;;;6.10;55.60;;;;;;5007904;28;19925;-78
2021/03/01 01:06:38;;;;;;;;;;;6.10;55.60;;;;;;5015295;28;19921;-78
2021/03/01 01:09:04;;;;;;;;;;;6.10;55.60;;;;;;5003234;28;19926;-78
2021/03/01 01:11:31;;;;;;;;;;;6.00;55.60;;;;;;5006236;28;19926;-78
2021/03/01 01:13:57;;;;;;;;;;;6.00;55.70;;;;;;5006469;28;20275;-78
2021/03/01 01:16:24;;;;;;;;;;;6.00;55.80;;;;;;5011948;28;19921;-79
2021/03/01 01:18:51;;;;;;;;;;;6.00;55.80;;;;;;5014664;28;19971;-78
2021/03/01 01:21:17;;;;;;;;;;;5.90;55.90;;;;;;5002363;28;20302;-78
2021/03/01 01:23:43;;;;;;;;;;;5.90;55.90;;;;;;5012766;28;19921;-78
2021/03/01 01:26:10;;;;;;;;;;;5.90;56.00;;;;;;4996744;28;20141;-78
2021/03/01 01:28:36;;;;;;;;;;;5.90;56.10;;;;;;5013202;28;19921;-78
2021/03/01 01:31:03;;;;;;;;;;;5.90;56.10;;;;;;5013175;28;19944;-79
2021/03/01 01:33:30;;;;;;;;;;;5.80;56.20;;;;;;5007397;28;19925;-79
2021/03/01 01:35:56;;;;;;;;;;;5.80;56.00;;;;;;4995070;28;20385;-78
2021/03/01 01:38:23;;;;;;;;;;;5.80;56.10;;;;;;4996324;28;19922;-78
2021/03/01 01:40:49;;;;;;;;;;;5.80;56.20;;;;;;4995987;28;20317;-78
2021/03/01 01:43:16;;;;;;;;;;;5.70;56.20;;;;;;4993512;28;19959;-77
2021/03/01 01:45:42;;;;;;;;;;;5.70;56.40;;;;;;4995835;28;19922;-78
2021/03/01 01:48:08;;;;;;;;;;;5.70;56.40;;;;;;4999693;28;19921;-77
2021/03/01 01:50:36;;;;;;;;;;;5.70;56.50;;;;;;5014445;28;19921;-77
2021/03/01 01:53:02;;;;;;;;;;;5.70;56.60;;;;;;4997428;28;19922;-77
2021/03/01 01:55:29;;;;;;;;;;;5.70;56.60;;;;;;4998418;28;19921;-77
2021/03/01 01:57:56;;;;;;;;;;;5.70;56.70;;;;;;5014397;28;19947;-77
2021/03/01 02:00:36;;;;;;;;;;;5.60;56.60;;;;;;5008605;28;19921;-77
2021/03/01 02:03:06;;;;;;;;;;;5.60;56.60;;;;;;5006205;28;20459;-77
2021/03/01 02:05:33;;;;;;;;;;;5.60;56.70;;;;;;5007539;28;19922;-77
2021/03/01 02:08:04;;;;;;;;;;;5.60;56.70;;;;;;5005636;28;19922;-78
2021/03/01 02:10:35;;;;;;;;;;;5.60;56.80;;;;;;5009716;28;19925;-78
2021/03/01 02:13:05;;;;;;;;;;;5.50;57.30;;;;;;5010331;28;20369;-78
2021/03/01 02:15:37;;;;;;;;;;;5.50;56.80;;;;;;5001738;28;19925;-77
2021/03/01 02:18:04;;;;;;;;;;;5.50;56.80;;;;;;4995205;28;19976;-78
2021/03/01 02:20:30;;;;;;;;;;;5.50;56.90;;;;;;4998851;28;19971;-78
2021/03/01 02:22:57;;;;;;;;;;;5.50;56.90;;;;;;5006191;28;19922;-78
2021/03/01 02:25:25;;;;;;;;;;;5.50;56.90;;;;;;4994173;28;19976;-77
2021/03/01 02:27:54;;;;;;;;;;;5.50;56.90;;;;;;5002426;28;19968;-78
2021/03/01 02:30:24;;;;;;;;;;;5.50;56.90;;;;;;4994122;28;19930;-79
2021/03/01 02:32:53;;;;;;;;;;;5.50;56.90;;;;;;5010959;28;20015;-78
2021/03/01 02:35:20;;;;;;;;;;;5.50;56.90;;;;;;5003818;28;19932;-78
2021/03/01 02:37:48;;;;;;;;;;;5.50;56.90;;;;;;5013678;28;19980;-78
2021/03/01 02:40:17;;;;;;;;;;;5.50;56.80;;;;;;5011240;28;19928;-79
2021/03/01 02:42:44;;;;;;;;;;;5.50;56.90;;;;;;5012913;28;19921;-78
2021/03/01 02:45:11;;;;;;;;;;;5.50;56.80;;;;;;5007024;28;19936;-79
2021/03/01 02:47:37;;;;;;;;;;;5.40;56.90;;;;;;4999910;28;19922;-78
2021/03/01 02:50:04;;;;;;;;;;;5.40;56.90;;;;;;5013451;28;19971;-78
2021/03/01 02:52:30;;;;;;;;;;;5.40;57.00;;;;;;4994080;28;19929;-78
2021/03/01 02:54:57;;;;;;;;;;;5.40;57.00;;;;;;5000567;28;20298;-78
2021/03/01 02:57:25;;;;;;;;;;;5.40;57.20;;;;;;5011932;28;19932;-78
2021/03/01 02:59:53;;;;;;;;;;;5.40;57.20;;;;;;5005612;28;19973;-78
2021/03/01 03:02:19;;;;;;;;;;;5.40;57.10;;;;;;4992181;28;20453;-78
2021/03/01 03:04:46;;;;;;;;;;;5.40;57.00;;;;;;4995941;28;19963;-79
2021/03/01 03:07:14;;;;;;;;;;;5.40;57.10;;;;;;5001296;28;19930;-79
2021/03/01 03:09:44;;;;;;;;;;;5.40;57.10;;;;;;4997218;28;19952;-79
2021/03/01 03:12:12;;;;;;;;;;;5.40;57.00;;;;;;5002735;28;19925;-78
2021/03/01 03:14:40;;;;;;;;;;;5.30;57.00;;;;;;4993635;28;19976;-78
2021/03/01 03:17:07;;;;;;;;;;;5.30;57.00;;;;;;5008340;28;19922;-78
2021/03/01 03:19:33;;;;;;;;;;;5.30;57.10;;;;;;5002714;28;19921;-78
2021/03/01 03:22:00;;;;;;;;;;;5.30;57.10;;;;;;5010717;28;20263;-78
2021/03/01 03:24:26;;;;;;;;;;;5.30;57.20;;;;;;5017201;28;19928;-78
2021/03/01 03:26:52;;;;;;;;;;;5.30;57.20;;;;;;5013785;28;19922;-78
2021/03/01 03:29:19;;;;;;;;;;;5.20;57.20;;;;;;5013454;28;19921;-78
2021/03/01 03:31:46;;;;;;;;;;;5.20;57.20;;;;;;5015516;28;19975;-78
2021/03/01 03:34:12;;;;;;;;;;;5.20;57.30;;;;;;5012613;28;19976;-80
2021/03/01 03:36:40;;;;;;;;;;;5.20;57.30;;;;;;4997373;28;19933;-78
2021/03/01 03:39:09;;;;;;;;;;;5.20;57.30;;;;;;5001954;28;19926;-79
2021/03/01 03:41:36;;;;;;;;;;;5.20;57.30;;;;;;5002693;28;19925;-79
2021/03/01 03:44:03;;;;;;;;;;;5.30;57.30;;;;;;4997373;28;20279;-79
2021/03/01 03:46:30;;;;;;;;;;;5.20;57.10;;;;;;5010255;28;19928;-79
2021/03/01 03:48:57;;;;;;;;;;;5.20;57.00;;;;;;5016442;28;19925;-79
2021/03/01 03:51:27;;;;;;;;;;;5.20;57.00;;;;;;5016276;28;19922;-78
2021/03/01 03:53:55;;;;;;;;;;;5.20;57.10;;;;;;5016926;28;19944;-78
2021/03/01 03:56:22;;;;;;;;;;;5.20;57.20;;;;;;5014229;28;19921;-78
2021/03/01 03:58:50;;;;;;;;;;;5.10;57.10;;;;;;5014645;28;19933;-78
2021/03/01 04:01:18;;;;;;;;;;;5.10;57.10;;;;;;5011501;28;19925;-78
2021/03/01 04:03:46;;;;;;;;;;;5.20;57.10;;;;;;5016439;28;19921;-78
2021/03/01 04:06:16;;;;;;;;;;;5.20;57.20;;;;;;5001034;28;19921;-78
2021/03/01 04:08:43;;;;;;;;;;;5.10;57.10;;;;;;5017550;28;19964;-78
2021/03/01 04:11:11;;;;;;;;;;;5.10;57.20;;;;;;5015822;28;19921;-77
2021/03/01 04:13:39;;;;;;;;;;;5.10;57.30;;;;;;5010603;28;20290;-77
2021/03/01 04:16:07;;;;;;;;;;;5.00;57.30;;;;;;5013407;28;19933;-78
2021/03/01 04:18:35;;;;;;;;;;;5.00;57.30;;;;;;5007870;28;19929;-77
2021/03/01 04:21:03;;;;;;;;;;;4.90;57.40;;;;;;5002856;28;20325;-77
2021/03/01 04:23:31;;;;;;;;;;;4.90;57.40;;;;;;5002745;28;19926;-78
2021/03/01 04:25:58;;;;;;;;;;;4.90;57.50;;;;;;5002580;28;20385;-77
2021/03/01 04:28:25;;;;;;;;;;;4.90;57.60;;;;;;4998505;28;20298;-78
2021/03/01 04:30:51;;;;;;;;;;;4.90;57.60;;;;;;5005480;28;20301;-77
2021/03/01 04:33:19;;;;;;;;;;;4.90;57.60;;;;;;5016123;28;19972;-77
2021/03/01 04:35:46;;;;;;;;;;;4.80;57.60;;;;;;5014251;28;20428;-77
2021/03/01 04:38:12;;;;;;;;;;;4.80;57.60;;;;;;5014105;28;19922;-77
2021/03/01 04:40:39;;;;;;;;;;;4.80;57.70;;;;;;5014203;28;19922;-77
2021/03/01 04:43:09;;;;;;;;;;;4.70;57.80;;;;;;5010517;28;19953;-77
2021/03/01 04:45:35;;;;;;;;;;;4.80;57.90;;;;;;5011006;28;19921;-77
2021/03/01 04:48:02;;;;;;;;;;;4.70;57.90;;;;;;5009314;28;19929;-77
2021/03/01 04:50:28;;;;;;;;;;;4.80;57.90;;;;;;5000287;28;20397;-77
2021/03/01 04:52:54;;;;;;;;;;;4.70;57.80;;;;;;4996894;28;20363;-77
2021/03/01 04:55:21;;;;;;;;;;;4.70;57.80;;;;;;4996820;28;19925;-77
2021/03/01 04:57:48;;;;;;;;;;;4.70;57.90;;;;;;4995775;28;20397;-77
2021/03/01 05:00:15;;;;;;;;;;;4.70;57.90;;;;;;4998768;28;19921;-77
2021/03/01 05:02:42;;;;;;;;;;;4.70;58.00;;;;;;4995690;28;19925;-77
2021/03/01 05:05:09;;;;;;;;;;;4.70;58.00;;;;;;4995583;28;20362;-77
2021/03/01 05:07:36;;;;;;;;;;;4.70;58.00;;;;;;5024650;28;19921;-80
2021/03/01 05:10:04;;;;;;;;;;;4.70;58.10;;;;;;5010117;28;19968;-77
2021/03/01 05:12:30;;;;;;;;;;;4.60;58.00;;;;;;5000071;28;19922;-76
2021/03/01 05:14:57;;;;;;;;;;;4.60;58.00;;;;;;4994552;28;20370;-76
2021/03/01 05:17:24;;;;;;;;;;;4.60;58.00;;;;;;5003714;28;19925;-78
2021/03/01 05:19:50;;;;;;;;;;;4.60;58.10;;;;;;5014616;28;19925;-76
2021/03/01 05:22:16;;;;;;;;;;;4.60;58.20;;;;;;5007450;28;19921;-78
2021/03/01 05:24:43;;;;;;;;;;;4.50;58.20;;;;;;5005633;28;19941;-78
2021/03/01 05:27:09;;;;;;;;;;;4.50;58.20;;;;;;4999647;28;19926;-78
2021/03/01 05:29:36;;;;;;;;;;;4.50;58.30;;;;;;4995339;28;19926;-79
2021/03/01 05:32:04;;;;;;;;;;;4.50;58.30;;;;;;5010428;28;19921;-78
2021/03/01 05:34:33;;;;;;;;;;;4.50;58.40;;;;;;5008125;28;20063;-78
2021/03/01 05:36:59;;;;;;;;;;;4.40;58.40;;;;;;5002262;28;19929;-76
2021/03/01 05:39:26;;;;;;;;;;;4.40;58.50;;;;;;4994603;28;19945;-78
2021/03/01 05:41:53;;;;;;;;;;;4.40;58.60;;;;;;5004171;28;19921;-77
2021/03/01 05:44:20;;;;;;;;;;;4.40;58.60;;;;;;4996691;28;20341;-77
2021/03/01 05:46:47;;;;;;;;;;;4.40;58.50;;;;;;4999369;28;20295;-77
2021/03/01 05:49:15;;;;;;;;;;;4.50;58.60;;;;;;5010732;28;20396;-77
2021/03/01 05:51:42;;;;;;;;;;;4.50;58.50;;;;;;5006576;28;19925;-79
2021/03/01 05:54:13;;;;;;;;;;;4.50;58.50;;;;;;5002444;28;19921;-77
2021/03/01 05:56:39;;;;;;;;;;;4.50;58.40;;;;;;4996208;28;19945;-78
2021/03/01 05:59:06;;;;;;;;;;;4.40;58.40;;;;;;5006677;28;19926;-78
2021/03/01 06:01:33;;;;;;;;;;;4.40;58.50;;;;;;5003134;28;20386;-78
2021/03/01 06:03:59;;;;;;;;;;;4.40;58.40;;;;;;5013829;28;19921;-77
2021/03/01 06:06:27;;;;;;;;;;;4.40;58.50;;;;;;5010269;28;19971;-77
2021/03/01 06:08:53;;;;;;;;;;;4.40;58.60;;;;;;5006121;28;19926;-78
2021/03/01 06:11:19;;;;;;;;;;;4.40;58.60;;;;;;5000650;28;20374;-78
2021/03/01 06:13:45;;;;;;;;;;;4.40;58.60;;;;;;5008238;28;19929;-77
2021/03/01 06:16:12;;;;;;;;;;;4.40;58.60;;;;;;4998515;28;19921;-77
2021/03/01 06:18:45;;;;;;;;;;;4.40;58.50;;;;;;5012149;28;19925;-78
2021/03/01 06:21:12;;;;;;;;;;;4.40;58.60;;;;;;5010835;28;19928;-77
2021/03/01 06:23:42;;;;;;;;;;;4.40;58.60;;;;;;5006464;28;20315;-77
2021/03/01 06:26:24;;;;;;;;;;;4.40;58.70;;;;;;5012658;28;19925;-76
2021/03/01 06:28:52;;;;;;;;;;;4.40;58.80;;;;;;5006134;28;19921;-76
2021/03/01 06:31:34;;;;;;;;;;;4.50;58.80;;;;;;5009070;28;19929;-75
2021/03/01 06:34:16;;;;;;;;;;;4.50;58.70;;;;;;5006038;28;20012;-75
2021/03/01 06:37:03;;;;;;;;;;;4.50;58.80;;;;;;5012813;28;19975;-74
2021/03/01 06:39:31;;;;;;;;;;;4.50;59.00;;;;;;5007734;28;19925;-75
2021/03/01 06:41:58;;;;;;;;;;;4.40;59.00;;;;;;5010758;28;20370;-75
2021/03/01 06:44:24;;;;;;;;;;;4.50;59.10;;;;;;5010493;28;20370;-75
2021/03/01 06:46:52;;;;;;;;;;;4.50;59.10;;;;;;5009095;28;19926;-77
2021/03/01 06:49:19;;;;;;;;;;;4.50;59.10;;;;;;5009023;28;19922;-76
2021/03/01 06:51:45;;;;;;;;;;;4.60;59.20;;;;;;5012410;28;19925;-75
2021/03/01 06:54:11;;;;;;;;;;;4.60;59.10;;;;;;5014549;28;19937;-76
2021/03/01 06:56:40;;;;;;;;;;;4.70;59.00;;;;;;5010454;28;19921;-75
2021/03/01 06:59:10;;;;;;;;;;;4.70;59.00;;;;;;5011766;28;19921;-75
2021/03/01 07:01:43;;;;;;;;;;;4.70;58.90;;;;;;5008281;28;20408;-75
2021/03/01 07:04:09;;;;;;;;;;;4.80;58.90;;;;;;5010040;28;19957;-75
2021/03/01 07:06:36;;;;;;;;;;;4.80;58.90;;;;;;5009090;28;20615;-74
2021/03/01 07:09:02;;;;;;;;;;;4.80;58.80;;;;;;5011871;28;20365;-75
2021/03/01 07:11:29;;;;;;;;;;;4.90;58.80;;;;;;5009075;28;19933;-75
2021/03/01 07:13:59;;;;;;;;;;;4.90;58.80;;;;;;5012486;28;20361;-75
2021/03/01 07:16:26;;;;;;;;;;;5.00;58.90;;;;;;4998481;28;20386;-75
2021/03/01 07:18:52;;;;;;;;;;;5.10;58.90;;;;;;5011702;28;19921;-75
2021/03/01 07:21:19;;;;;;;;;;;5.20;58.70;;;;;;5011074;28;19921;-76
2021/03/01 07:23:46;;;;;;;;;;;5.30;58.70;;;;;;5013789;28;19960;-75
2021/03/01 07:26:15;;;;;;;;;;;5.50;58.70;;;;;;5008421;28;20328;-76
2021/03/01 07:28:42;;;;;;;;;;;5.70;58.60;;;;;;5008981;28;19960;-76
2021/03/01 07:31:10;;;;;;;;;;;5.80;58.40;;;;;;5012826;28;19967;-77
2021/03/01 07:33:39;;;;;;;;;;;6.00;58.20;;;;;;4999125;28;19926;-76
2021/03/01 07:36:07;;;;;;;;;;;6.10;58.20;;;;;;5011285;28;20404;-77
2021/03/01 07:38:34;;;;;;;;;;;6.40;58.00;;;;;;5012585;28;19932;-77
2021/03/01 07:41:01;;;;;;;;;;;6.70;57.70;;;;;;5012989;28;19925;-78
2021/03/01 07:43:27;;;;;;;;;;;6.90;57.20;;;;;;5012910;28;19929;-78
2021/03/01 07:45:54;;;;;;;;;;;7.20;57.00;;;;;;5012076;28;19922;-78
2021/03/01 07:48:21;;;;;;;;;;;7.40;56.80;;;;;;5008169;28;19928;-77
2021/03/01 07:50:48;;;;;;;;;;;7.60;56.40;;;;;;5004943;28;20400;-77
2021/03/01 07:53:38;;;;;;;;;;;7.90;55.70;;;;;;5012711;28;19921;-75
2021/03/01 07:56:19;;;;;;;;;;;8.00;55.10;;;;;;4998486;28;20091;-76
2021/03/01 07:58:54;;;;;;;;;;;8.20;55.00;;;;;;5013703;28;19968;-77
2021/03/01 08:01:20;;;;;;;;;;;8.30;54.30;;;;;;5008183;28;19925;-76
2021/03/01 08:03:47;;;;;;;;;;;8.50;54.40;;;;;;4998607;28;19921;-76
2021/03/01 08:06:13;;;;;;;;;;;8.70;54.30;;;;;;5001988;28;19936;-77
2021/03/01 08:08:43;;;;;;;;;;;8.90;54.00;;;;;;5036459;28;19964;-75
2021/03/01 08:11:09;;;;;;;;;;;9.10;53.30;;;;;;5023024;28;19921;-76
2021/03/01 08:13:36;;;;;;;;;;;9.30;53.10;;;;;;5004538;28;19936;-76
2021/03/01 08:16:18;;;;;;;;;;;9.40;52.90;;;;;;5015502;28;20012;-75
2021/03/01 08:18:52;;;;;;;;;;;9.50;52.00;;;;;;5008343;28;20279;-77
2021/03/01 08:21:18;;;;;;;;;;;9.70;51.70;;;;;;4994840;28;19929;-76
2021/03/01 08:23:47;;;;;;;;;;;9.80;51.60;;;;;;5007669;28;19969;-77
2021/03/01 08:26:27;;;;;;;;;;;9.90;51.40;;;;;;5016091;28;19921;-76
2021/03/01 08:28:57;;;;;;;;;;;10.00;50.10;;;;;;5015971;28;19965;-76
2021/03/01 08:31:23;;;;;;;;;;;10.10;49.90;;;;;;5004418;28;19972;-77
2021/03/01 08:33:50;;;;;;;;;;;10.30;49.80;;;;;;5015787;28;19921;-77
2021/03/01 08:36:21;;;;;;;;;;;10.30;49.50;;;;;;5011506;28;19921;-77
2021/03/01 08:38:49;;;;;;;;;;;10.40;49.20;;;;;;5004829;28;19928;-77
2021/03/01 08:41:16;;;;;;;;;;;10.50;49.00;;;;;;4995624;28;19972;-77
2021/03/01 08:43:43;;;;;;;;;;;10.50;49.00;;;;;;5009748;28;19933;-77
2021/03/01 08:46:17;;;;;;;;;;;10.50;48.60;;;;;;5012478;28;19929;-77
2021/03/01 08:48:44;;;;;;;;;;;10.50;48.70;;;;;;4994319;28;19933;-77
2021/03/01 08:51:11;;;;;;;;;;;10.50;48.30;;;;;;4996931;28;20282;-78
2021/03/01 08:53:39;;;;;;;;;;;10.50;48.40;;;;;;4996349;28;19928;-77
2021/03/01 08:56:05;;;;;;;;;;;10.40;48.50;;;;;;4995700;28;20278;-76
2021/03/01 08:58:34;;;;;;;;;;;10.30;48.70;;;;;;5000605;28;19922;-76
2021/03/01 09:01:01;;;;;;;;;;;10.30;48.90;;;;;;5005734;28;20325;-76
2021/03/01 09:03:29;;;;;;;;;;;10.20;49.00;;;;;;4999319;28;19926;-75
2021/03/01 09:06:04;;;;;;;;;;;10.30;49.30;;;;;;5013455;28;19961;-75
2021/03/01 09:08:31;;;;;;;;;;;10.30;49.30;;;;;;5001548;28;19922;-76
2021/03/01 09:11:00;;;;;;;;;;;10.30;49.10;;;;;;5014985;28;19941;-76
2021/03/01 09:13:27;;;;;;;;;;;10.30;49.00;;;;;;5011164;28;20421;-76
2021/03/01 09:15:53;;;;;;;;;;;10.30;49.00;;;;;;5002343;28;19929;-76
2021/03/01 09:18:19;;;;;;;;;;;10.30;48.90;;;;;;5009240;28;19921;-75
2021/03/01 09:20:47;;;;;;;;;;;10.30;48.80;;;;;;5008741;28;19929;-76
2021/03/01 09:23:14;;;;;;;;;;;10.20;48.70;;;;;;5013671;28;19930;-76
2021/03/01 09:25:40;;;;;;;;;;;10.10;49.00;;;;;;5012016;28;19932;-75
2021/03/01 09:28:08;;;;;;;;;;;10.10;49.50;;;;;;5002241;28;19922;-75
2021/03/01 09:30:35;;;;;;;;;;;10.00;49.00;;;;;;5005972;28;20362;-75
2021/03/01 09:33:02;;;;;;;;;;;10.00;49.20;;;;;;4996267;28;19921;-76
2021/03/01 09:35:30;;;;;;;;;;;10.00;49.20;;;;;;5006231;28;19929;-75
2021/03/01 09:37:56;;;;;;;;;;;10.00;49.20;;;;;;4995284;28;20301;-75
2021/03/01 09:40:23;;;;;;;;;;;10.00;49.20;;;;;;5001721;28;19921;-75
2021/03/01 09:42:51;;;;;;;;;;;10.00;49.40;;;;;;5014238;28;19929;-77
2021/03/01 09:45:18;;;;;;;;;;;10.00;49.40;;;;;;5007214;28;20437;-76
2021/03/01 09:47:46;;;;;;;;;;;10.00;49.40;;;;;;5001609;28;19926;-76
2021/03/01 09:50:13;;;;;;;;;;;10.00;49.40;;;;;;5005715;28;19921;-76
2021/03/01 09:52:40;;;;;;;;;;;10.00;49.30;;;;;;4994876;28;19929;-75
2021/03/01 09:55:07;;;;;;;;;;;10.10;49.30;;;;;;5011008;28;19940;-75
2021/03/01 09:57:33;;;;;;;;;;;10.10;49.30;;;;;;5013833;28;19928;-76
2021/03/01 09:59:59;;;;;;;;;;;10.20;49.10;;;;;;5014153;28;20366;-76
2021/03/01 10:02:27;;;;;;;;;;;10.20;48.80;;;;;;5013304;28;19976;-76
2021/03/01 10:05:09;;;;;;;;;;;10.30;48.80;;;;;;5009103;28;20337;-77
2021/03/01 10:07:35;;;;;;;;;;;10.40;48.90;;;;;;5009766;28;19929;-77
2021/03/01 10:10:11;;;;;;;;;;;10.60;48.70;;;;;;5004787;28;19928;-75
2021/03/01 10:12:43;;;;;;;;;;;10.60;48.40;;;;;;4994629;28;19928;-76
2021/03/01 10:15:10;;;;;;;;;;;10.80;48.40;;;;;;5005022;28;19921;-77
2021/03/01 10:17:37;;;;;;;;;;;10.90;48.10;;;;;;5013705;28;20337;-77
2021/03/01 10:20:08;;;;;;;;;;;11.10;47.90;;;;;;5001367;28;19922;-77
2021/03/01 10:22:49;;;;;;;;;;;11.20;47.50;;;;;;4999001;28;19921;-76
2021/03/01 10:25:15;;;;;;;;;;;11.40;47.10;;;;;;5001445;28;19925;-77
2021/03/01 10:27:41;;;;;;;;;;;11.50;46.30;;;;;;5013341;28;19921;-76
2021/03/01 10:30:08;;;;;;;;;;;11.60;45.90;;;;;;4994152;28;19921;-77
2021/03/01 10:32:35;;;;;;;;;;;11.70;45.80;;;;;;5012308;28;19944;-76
2021/03/01 10:35:16;;;;;;;;;;;11.70;45.30;;;;;;5011783;28;21505;-77
2021/03/01 10:37:59;;;;;;;;;;;11.90;45.40;;;;;;5011713;28;19968;-78
2021/03/01 10:40:25;;;;;;;;;;;12.10;45.10;;;;;;5012762;28;19929;-77
2021/03/01 10:42:52;;;;;;;;;;;12.30;44.90;;;;;;5011847;28;20360;-78
2021/03/01 10:45:19;;;;;;;;;;;12.50;44.30;;;;;;5013379;28;19925;-78
2021/03/01 10:47:58;;;;;;;;;;;12.70;44.10;;;;;;5011925;28;19921;-78
2021/03/01 10:50:25;;;;;;;;;;;12.90;43.10;;;;;;5009174;28;19922;-78
2021/03/01 10:52:51;;;;;;;;;;;13.20;42.70;;;;;;5001299;28;19975;-78
2021/03/01 10:55:17;;;;;;;;;;;13.50;42.30;;;;;;5008734;28;19922;-78
2021/03/01 10:57:44;;;;;;;;;;;13.80;41.50;;;;;;5005857;28;19921;-78
2021/03/01 11:00:11;;;;;;;;;;;14.20;41.60;;;;;;5011622;28;19925;-75
2021/03/01 11:02:37;;;;;;;;;;;14.80;41.00;;;;;;4994331;28;19921;-75
2021/03/01 11:05:04;;;;;;;;;;;15.40;39.80;;;;;;4997226;28;19922;-75
2021/03/01 11:07:31;;;;;;;;;;;15.80;38.20;;;;;;5008309;28;20032;-76
2021/03/01 11:09:57;;;;;;;;;;;16.40;37.60;;;;;;5005116;28;19922;-76
2021/03/01 11:12:24;;;;;;;;;;;17.00;36.40;;;;;;4996933;28;19968;-76
2021/03/01 11:14:50;;;;;;;;;;;17.50;35.20;;;;;;5010532;28;19953;-77
2021/03/01 11:17:16;;;;;;;;;;;18.00;34.20;;;;;;4995672;28;19936;-76
2021/03/01 11:19:42;;;;;;;;;;;18.60;33.50;;;;;;5012981;28;20020;-76
2021/03/01 11:22:09;;;;;;;;;;;19.20;31.60;;;;;;5003714;28;20374;-77
2021/03/01 11:24:36;;;;;;;;;;;19.80;31.40;;;;;;4994538;28;19921;-77
2021/03/01 11:27:02;;;;;;;;;;;20.70;30.40;;;;;;4996225;28;19926;-74
2021/03/01 11:29:28;;;;;;;;;;;21.70;29.20;;;;;;5001711;28;19922;-75
2021/03/01 11:31:55;;;;;;;;;;;22.60;28.10;;;;;;5010240;28;20370;-75
2021/03/01 11:34:21;;;;;;;;;;;23.70;27.40;;;;;;4995791;28;19944;-77
2021/03/01 11:36:49;;;;;;;;;;;25.00;26.50;;;;;;4994821;28;19929;-77
2021/03/01 11:39:15;;;;;;;;;;;26.50;25.10;;;;;;5015517;28;20764;-78
2021/03/01 11:41:42;;;;;;;;;;;27.80;23.80;;;;;;5004416;28;19921;-77
2021/03/01 11:44:09;;;;;;;;;;;28.70;22.50;;;;;;5007610;28;19928;-75
2021/03/01 11:46:36;;;;;;;;;;;29.80;21.20;;;;;;5015149;28;20357;-75
2021/03/01 11:49:02;;;;;;;;;;;30.80;20.70;;;;;;5016366;28;20385;-76
2021/03/01 11:51:29;;;;;;;;;;;31.90;19.70;;;;;;5004815;28;19922;-76
2021/03/01 11:53:55;;;;;;;;;;;31.80;18.80;;;;;;5004167;28;19922;-75
2021/03/01 11:56:21;;;;;;;;;;;29.30;19.30;;;;;;4996968;28;19933;-76
2021/03/01 11:58:48;;;;;;;;;;;26.40;21.00;;;;;;4998058;28;19932;-76
2021/03/01 12:01:15;;;;;;;;;;;23.90;22.70;;;;;;4996993;28;19929;-76
2021/03/01 12:03:41;;;;;;;;;;;21.80;24.50;;;;;;4997483;28;19921;-77
2021/03/01 12:06:09;;;;;;;;;;;20.20;26.00;;;;;;5007769;28;19928;-77
2021/03/01 12:08:35;;;;;;;;;;;19.00;27.30;;;;;;4997811;28;19921;-78
2021/03/01 12:11:02;;;;;;;;;;;18.20;28.10;;;;;;5004057;28;19960;-79
2021/03/01 12:13:28;;;;;;;;;;;17.70;28.70;;;;;;5013924;28;19929;-80
2021/03/01 12:15:55;;;;;;;;;;;17.40;29.30;;;;;;5006847;28;20367;-79
2021/03/01 12:18:22;;;;;;;;;;;17.00;29.70;;;;;;5005877;28;19944;-79
2021/03/01 12:20:48;;;;;;;;;;;16.70;30.00;;;;;;5013645;28;19921;-79
2021/03/01 12:23:14;;;;;;;;;;;16.40;30.00;;;;;;5016038;28;19922;-79
2021/03/01 12:25:41;;;;;;;;;;;16.30;31.00;;;;;;5006283;28;19925;-79
2021/03/01 12:28:07;;;;;;;;;;;16.10;30.50;;;;;;5009938;28;19921;-79
2021/03/01 12:30:33;;;;;;;;;;;16.10;30.50;;;;;;4996545;28;19925;-80
2021/03/01 12:33:01;;;;;;;;;;;16.00;30.40;;;;;;4996714;28;19929;-79
2021/03/01 12:35:27;;;;;;;;;;;16.00;30.00;;;;;;5012929;28;19929;-79
2021/03/01 12:37:54;;;;;;;;;;;15.90;30.00;;;;;;5015261;28;19921;-79
2021/03/01 12:40:21;;;;;;;;;;;15.90;29.60;;;;;;5015936;28;19922;-79
2021/03/01 12:42:47;;;;;;;;;;;15.90;29.30;;;;;;5013940;28;19921;-78
2021/03/01 12:45:14;;;;;;;;;;;15.80;29.70;;;;;;5012779;28;20396;-78
2021/03/01 12:47:40;;;;;;;;;;;15.80;29.50;;;;;;5001996;28;19921;-79
2021/03/01 12:50:08;;;;;;;;;;;15.80;29.60;;;;;;5013126;28;19928;-79
2021/03/01 12:52:37;;;;;;;;;;;15.80;29.70;;;;;;5015346;28;19921;-79
2021/03/01 12:55:04;;;;;;;;;;;15.80;30.00;;;;;;5014938;28;19928;-78
2021/03/01 12:57:30;;;;;;;;;;;15.80;29.90;;;;;;5013655;28;19925;-78
2021/03/01 12:59:56;;;;;;;;;;;15.80;30.00;;;;;;5015397;28;20274;-79
2021/03/01 13:02:23;;;;;;;;;;;15.80;30.00;;;;;;5014861;28;19922;-79
2021/03/01 13:04:49;;;;;;;;;;;15.90;30.10;;;;;;5015359;28;19922;-79
2021/03/01 13:07:16;;;;;;;;;;;15.90;30.00;;;;;;5024278;28;19928;-78
2021/03/01 13:09:43;;;;;;;;;;;15.90;30.10;;;;;;5010093;28;19922;-79
2021/03/01 13:12:09;;;;;;;;;;;15.90;30.20;;;;;;5006102;28;19945;-79
2021/03/01 13:14:35;;;;;;;;;;;15.90;30.60;;;;;;5010191;28;19922;-79
2021/03/01 13:17:02;;;;;;;;;;;15.90;30.60;;;;;;4995469;28;19922;-79
2021/03/01 13:19:28;;;;;;;;;;;15.90;30.60;;;;;;4997446;28;19925;-79
2021/03/01 13:21:54;;;;;;;;;;;15.90;30.70;;;;;;5013572;28;19922;-79
2021/03/01 13:24:21;;;;;;;;;;;15.90;31.00;;;;;;5014862;28;19925;-79
2021/03/01 13:26:48;;;;;;;;;;;15.90;31.10;;;;;;5008337;28;19921;-79
2021/03/01 13:29:14;;;;;;;;;;;15.90;31.30;;;;;;5002037;28;19979;-79
2021/03/01 13:31:40;;;;;;;;;;;15.80;31.40;;;;;;5010068;28;19929;-79
2021/03/01 13:34:07;;;;;;;;;;;15.80;31.30;;;;;;4996233;28;19929;-79
2021/03/01 13:36:34;;;;;;;;;;;15.80;31.30;;;;;;4995296;28;19921;-78
2021/03/01 13:39:00;;;;;;;;;;;15.80;31.30;;;;;;4994808;28;19988;-79
2021/03/01 13:41:27;;;;;;;;;;;15.80;31.40;;;;;;5013679;28;19921;-79
2021/03/01 13:43:54;;;;;;;;;;;15.90;31.70;;;;;;5011250;28;19922;-78
2021/03/01 13:46:22;;;;;;;;;;;15.90;31.90;;;;;;4995477;28;19925;-78
2021/03/01 13:48:48;;;;;;;;;;;15.90;32.20;;;;;;5013391;28;19922;-79
2021/03/01 13:51:15;;;;;;;;;;;15.90;32.20;;;;;;5000650;28;19928;-79
2021/03/01 13:53:41;;;;;;;;;;;15.90;31.90;;;;;;5013114;28;19928;-79
2021/03/01 13:56:07;;;;;;;;;;;15.90;32.10;;;;;;5002354;28;19921;-79
2021/03/01 13:58:34;;;;;;;;;;;15.90;32.00;;;;;;5014442;28;19921;-78
2021/03/01 14:01:01;;;;;;;;;;;15.90;32.00;;;;;;4995443;28;20274;-78
2021/03/01 14:03:27;;;;;;;;;;;15.90;32.00;;;;;;5000431;28;19934;-78
2021/03/01 14:05:53;;;;;;;;;;;15.90;32.30;;;;;;5012603;28;19922;-79
2021/03/01 14:08:20;;;;;;;;;;;15.80;32.30;;;;;;5015233;28;19928;-79
2021/03/01 14:10:46;;;;;;;;;;;15.80;32.20;;;;;;4999367;28;20433;-79
2021/03/01 14:13:13;;;;;;;;;;;15.90;32.90;;;;;;4994330;28;19922;-79
2021/03/01 14:15:41;;;;;;;;;;;15.90;32.30;;;;;;5006163;28;19922;-79
2021/03/01 14:18:07;;;;;;;;;;;15.90;32.60;;;;;;5013737;28;19922;-79
2021/03/01 14:20:34;;;;;;;;;;;15.80;32.60;;;;;;5001387;28;20330;-78
2021/03/01 14:23:02;;;;;;;;;;;15.90;32.60;;;;;;5011084;28;19929;-78
2021/03/01 14:25:28;;;;;;;;;;;15.80;32.50;;;;;;5008453;28;19976;-79